createdAt,value
2023-01-03T00:01:26.504Z,9.71
2023-01-03T00:03:55.671Z,9.58
2023-01-03T00:06:28.467Z,9.64
2023-01-03T00:08:56.776Z,9.63
2023-01-03T00:11:45.618Z,9.57
2023-01-03T00:14:18.485Z,9.49
2023-01-03T00:16:46.940Z,9.47
2023-01-03T00:19:15.282Z,9.40
2023-01-03T00:21:43.162Z,9.41
2023-01-03T00:24:11.309Z,9.49
2023-01-03T00:26:40.283Z,9.48
2023-01-03T00:29:08.178Z,9.42
2023-01-03T00:31:36.350Z,9.24
2023-01-03T00:34:03.829Z,9.26
2023-01-03T00:36:31.177Z,9.30
2023-01-03T00:38:58.488Z,9.25
2023-01-03T00:41:26.087Z,9.30
2023-01-03T00:43:53.342Z,9.37
2023-01-03T00:46:21.473Z,9.29
2023-01-03T00:48:49.017Z,9.13
2023-01-03T00:51:21.715Z,9.00
2023-01-03T00:53:50.594Z,8.90
2023-01-03T00:56:21.067Z,8.79
2023-01-03T00:58:48.665Z,8.72
2023-01-03T01:01:27.490Z,8.70
2023-01-03T01:04:01.676Z,8.65
2023-01-03T01:06:34.850Z,8.54
2023-01-03T01:09:04.077Z,8.59
2023-01-03T01:11:31.557Z,8.68
2023-01-03T01:13:58.933Z,8.65
2023-01-03T01:16:29.386Z,8.57
2023-01-03T01:18:58.385Z,8.56
2023-01-03T01:21:29.783Z,8.52
2023-01-03T01:23:57.947Z,8.42
2023-01-03T01:26:25.642Z,8.31
2023-01-03T01:28:54.034Z,8.28
2023-01-03T01:31:23.850Z,8.21
2023-01-03T01:33:52.164Z,8.16
2023-01-03T01:36:27.959Z,8.17
2023-01-03T01:38:57.278Z,8.31
2023-01-03T01:41:42.906Z,8.37
2023-01-03T01:44:49.256Z,8.48
2023-01-03T01:47:43.626Z,8.45
2023-01-03T01:50:19.812Z,8.35
2023-01-03T01:52:52.288Z,8.20
2023-01-03T01:55:22.049Z,8.17
2023-01-03T01:57:49.253Z,8.15
2023-01-03T02:00:16.556Z,8.17
2023-01-03T02:02:45.098Z,8.22
2023-01-03T02:05:12.683Z,8.23
2023-01-03T02:07:40.385Z,8.17
2023-01-03T02:10:08.070Z,7.99
2023-01-03T02:13:01.226Z,7.87
2023-01-03T02:15:50.488Z,7.81
2023-01-03T02:18:29.498Z,7.69
2023-01-03T02:21:21.645Z,7.58
2023-01-03T02:24:16.620Z,7.50
2023-01-03T02:27:15.832Z,7.45
2023-01-03T02:29:59.651Z,7.37
2023-01-03T02:32:50.714Z,7.32
2023-01-03T02:35:22.944Z,7.29
2023-01-03T02:37:59.309Z,7.31
2023-01-03T02:40:53.256Z,7.19
2023-01-03T02:43:38.349Z,7.20
2023-01-03T02:46:14.087Z,7.17
2023-01-03T02:48:45.019Z,7.16
2023-01-03T02:51:41.253Z,7.09
2023-01-03T02:54:12.251Z,7.00
2023-01-03T02:56:55.632Z,7.08
2023-01-03T02:59:36.726Z,7.08
2023-01-03T03:02:05.401Z,6.95
2023-01-03T03:04:35.157Z,6.96
2023-01-03T03:07:09.498Z,6.94
2023-01-03T03:09:56.658Z,6.87
2023-01-03T03:12:42.905Z,6.82
2023-01-03T03:15:12.045Z,6.71
2023-01-03T03:17:39.331Z,6.64
2023-01-03T03:20:34.019Z,6.68
2023-01-03T03:23:41.100Z,6.61
2023-01-03T03:26:11.327Z,6.53
2023-01-03T03:28:43.406Z,6.56
2023-01-03T03:31:25.296Z,6.45
2023-01-03T03:34:04.252Z,6.48
2023-01-03T03:36:54.068Z,6.39
2023-01-03T03:39:41.412Z,6.36
2023-01-03T03:42:49.573Z,6.42
2023-01-03T03:45:33.300Z,6.37
2023-01-03T03:48:14.075Z,6.34
2023-01-03T03:50:49.603Z,6.32
2023-01-03T03:53:18.348Z,6.27
2023-01-03T03:56:05.648Z,6.23
2023-01-03T03:58:39.998Z,6.14
2023-01-03T04:01:09.078Z,6.11
2023-01-03T04:03:37.429Z,6.04
2023-01-03T04:06:10.200Z,6.05
2023-01-03T04:08:37.618Z,6.01
2023-01-03T04:11:07.719Z,6.00
2023-01-03T04:13:36.519Z,6.01
2023-01-03T04:16:04.499Z,6.03
2023-01-03T04:18:31.718Z,6.06
2023-01-03T04:20:59.027Z,6.03
2023-01-03T04:23:26.234Z,5.95
2023-01-03T04:25:53.466Z,5.88
2023-01-03T04:28:20.694Z,5.85
2023-01-03T04:30:48.154Z,5.81
2023-01-03T04:33:15.336Z,5.78
2023-01-03T04:35:42.508Z,5.71
2023-01-03T04:38:10.218Z,5.66
2023-01-03T04:40:40.625Z,5.61
2023-01-03T04:43:26.577Z,5.55
2023-01-03T04:45:53.821Z,5.53
2023-01-03T04:48:21.062Z,5.52
2023-01-03T04:50:55.837Z,5.54
2023-01-03T04:53:24.823Z,5.48
2023-01-03T04:55:53.207Z,5.46
2023-01-03T04:58:20.954Z,5.47
2023-01-03T05:00:48.250Z,5.42
2023-01-03T05:03:15.560Z,5.40
2023-01-03T05:05:42.827Z,5.42
2023-01-03T05:08:11.656Z,5.34
2023-01-03T05:10:39.753Z,5.36
2023-01-03T05:13:07.365Z,5.37
2023-01-03T05:15:38.671Z,5.46
2023-01-03T05:18:06.358Z,5.46
2023-01-03T05:20:55.628Z,5.45
2023-01-03T05:23:41.693Z,5.34
2023-01-03T05:26:18.765Z,5.32
2023-01-03T05:28:49.306Z,5.20
2023-01-03T05:31:19.802Z,5.15
2023-01-03T05:33:47.143Z,5.20
2023-01-03T05:36:16.476Z,5.06
2023-01-03T05:38:43.979Z,5.04
2023-01-03T05:41:13.778Z,5.05
2023-01-03T05:43:40.925Z,5.07
2023-01-03T05:46:08.216Z,5.03
2023-01-03T05:48:35.444Z,5.00
2023-01-03T05:51:02.658Z,5.01
2023-01-03T05:53:29.852Z,4.98
2023-01-03T05:55:57.055Z,4.95
2023-01-03T05:58:24.247Z,4.94
2023-01-03T06:00:51.777Z,4.92
2023-01-03T06:03:18.970Z,4.87
2023-01-03T06:05:50.095Z,4.90
2023-01-03T06:08:17.867Z,4.88
2023-01-03T06:10:45.250Z,4.86
2023-01-03T06:13:12.858Z,4.84
2023-01-03T06:15:40.055Z,4.78
2023-01-03T06:18:07.240Z,4.79
2023-01-03T06:20:34.674Z,4.74
2023-01-03T06:23:01.840Z,4.68
2023-01-03T06:25:29.060Z,4.66
2023-01-03T06:27:56.269Z,4.65
2023-01-03T06:30:23.476Z,4.63
2023-01-03T06:32:50.881Z,4.56
2023-01-03T06:35:18.079Z,4.57
2023-01-03T06:37:45.261Z,4.56
2023-01-03T06:40:12.634Z,4.54
2023-01-03T06:42:39.802Z,4.52
2023-01-03T06:45:26.168Z,4.51
2023-01-03T06:48:12.012Z,4.49
2023-01-03T06:50:59.505Z,4.46
2023-01-03T06:53:37.675Z,4.41
2023-01-03T06:56:05.538Z,4.35
2023-01-03T06:58:32.732Z,4.32
2023-01-03T07:01:02.640Z,4.36
2023-01-03T07:03:31.211Z,4.34
2023-01-03T07:05:58.391Z,4.32
2023-01-03T07:08:25.605Z,4.27
2023-01-03T07:10:52.916Z,4.29
2023-01-03T07:13:55.483Z,4.30
2023-01-03T07:16:22.825Z,4.25
2023-01-03T07:18:55.034Z,4.22
2023-01-03T07:21:23.828Z,4.20
2023-01-03T07:23:58.244Z,4.17
2023-01-03T07:26:26.018Z,4.19
2023-01-03T07:28:53.501Z,4.18
2023-01-03T07:31:21.015Z,4.16
2023-01-03T07:33:48.319Z,4.13
2023-01-03T07:36:16.889Z,4.16
2023-01-03T07:38:45.196Z,4.14
2023-01-03T07:41:13.199Z,4.11
2023-01-03T07:43:43.136Z,4.10
2023-01-03T07:46:17.930Z,4.09
2023-01-03T07:48:46.694Z,4.09
2023-01-03T07:51:15.854Z,4.12
2023-01-03T07:53:43.544Z,4.16
2023-01-03T07:56:14.496Z,4.13
2023-01-03T07:58:43.390Z,4.19
2023-01-03T08:01:18.656Z,4.26
2023-01-03T08:03:46.457Z,4.31
2023-01-03T08:06:15.898Z,4.30
2023-01-03T08:08:43.402Z,4.36
2023-01-03T08:11:33.311Z,4.41
2023-01-03T08:14:00.765Z,4.43
2023-01-03T08:16:28.210Z,4.50
2023-01-03T08:18:55.476Z,4.55
2023-01-03T08:21:22.950Z,4.61
2023-01-03T08:23:50.648Z,4.68
2023-01-03T08:26:18.120Z,4.77
2023-01-03T08:28:45.579Z,4.83
2023-01-03T08:31:21.403Z,4.89
2023-01-03T08:33:57.985Z,4.94
2023-01-03T08:36:27.073Z,4.95
2023-01-03T08:39:02.601Z,5.12
2023-01-03T08:41:32.000Z,5.18
2023-01-03T08:44:00.138Z,5.26
2023-01-03T08:46:27.679Z,5.38
2023-01-03T08:48:55.771Z,5.45
2023-01-03T08:51:26.530Z,5.44
2023-01-03T08:53:53.991Z,5.49
2023-01-03T08:56:21.384Z,5.54
2023-01-03T08:58:48.594Z,5.52
2023-01-03T09:01:16.118Z,5.55
2023-01-03T09:03:43.646Z,5.60
2023-01-03T09:06:13.865Z,5.60
2023-01-03T09:08:41.199Z,5.76
2023-01-03T09:11:09.063Z,5.82
2023-01-03T09:13:37.378Z,5.89
2023-01-03T09:16:06.869Z,5.96
2023-01-03T09:18:34.962Z,6.10
2023-01-03T09:21:03.306Z,6.19
2023-01-03T09:23:31.469Z,6.49
2023-01-03T09:26:01.928Z,6.73
2023-01-03T09:28:33.456Z,6.87
2023-01-03T09:31:00.833Z,7.01
2023-01-03T09:33:28.302Z,7.17
2023-01-03T09:35:56.070Z,7.19
2023-01-03T09:38:24.189Z,7.32
2023-01-03T09:41:03.143Z,7.46
2023-01-03T09:43:36.995Z,7.53
2023-01-03T09:46:06.046Z,7.46
2023-01-03T09:48:35.561Z,7.40
2023-01-03T09:51:19.764Z,7.34
2023-01-03T09:54:08.587Z,7.34
2023-01-03T09:56:54.268Z,7.45
2023-01-03T09:59:40.437Z,7.41
2023-01-03T10:02:51.502Z,7.54
2023-01-03T10:06:02.143Z,7.53
2023-01-03T10:08:35.582Z,7.56
2023-01-03T10:11:24.520Z,7.65
2023-01-03T10:14:03.489Z,7.75
2023-01-03T10:16:59.736Z,7.95
2023-01-03T10:20:07.965Z,8.30
2023-01-03T10:22:37.211Z,8.61
2023-01-03T10:25:11.930Z,8.82
2023-01-03T10:27:45.540Z,8.92
2023-01-03T10:30:58.295Z,8.94
2023-01-03T10:33:33.366Z,8.89
2023-01-03T10:36:01.278Z,8.86
2023-01-03T10:38:29.393Z,8.80
2023-01-03T10:41:01.796Z,8.81
2023-01-03T10:43:46.225Z,8.83
2023-01-03T10:46:25.424Z,8.89
2023-01-03T10:49:25.830Z,8.84
2023-01-03T10:52:03.842Z,9.00
2023-01-03T10:55:15.830Z,8.91
2023-01-03T10:57:48.825Z,8.72
2023-01-03T11:00:36.234Z,8.76
2023-01-03T11:03:11.529Z,8.73
2023-01-03T11:05:40.694Z,8.76
2023-01-03T11:08:20.210Z,8.88
2023-01-03T11:10:56.577Z,9.13
2023-01-03T11:13:34.307Z,9.24
2023-01-03T11:16:03.889Z,8.94
2023-01-03T11:18:31.665Z,8.93
2023-01-03T11:21:18.160Z,8.85
2023-01-03T11:23:56.417Z,8.89
2023-01-03T11:26:50.240Z,8.99
2023-01-03T11:29:45.051Z,8.97
2023-01-03T11:32:28.462Z,8.73
2023-01-03T11:35:29.515Z,8.76
2023-01-03T11:38:11.489Z,8.82
2023-01-03T11:41:03.427Z,8.79
2023-01-03T11:43:54.243Z,8.93
2023-01-03T11:46:52.416Z,8.94
2023-01-03T11:49:44.561Z,8.79
2023-01-03T11:52:45.823Z,8.55
2023-01-03T11:55:40.477Z,8.49
2023-01-03T11:58:42.611Z,8.43
2023-01-03T12:01:24.963Z,8.56
2023-01-03T12:04:05.451Z,8.46
2023-01-03T12:07:14.303Z,8.55
2023-01-03T12:09:57.701Z,8.49
2023-01-03T12:12:30.128Z,8.55
2023-01-03T12:15:15.129Z,8.36
2023-01-03T12:17:54.617Z,8.19
2023-01-03T12:20:37.556Z,7.98
2023-01-03T12:23:31.581Z,7.92
2023-01-03T12:26:05.472Z,7.80
2023-01-03T12:28:51.286Z,7.89
2023-01-03T12:31:20.433Z,7.90
2023-01-03T12:34:05.911Z,7.93
2023-01-03T12:36:45.396Z,7.94
2023-01-03T12:39:36.998Z,8.00
2023-01-03T12:42:38.269Z,8.14
2023-01-03T12:45:08.521Z,8.22
2023-01-03T12:47:59.650Z,8.00
2023-01-03T12:50:39.024Z,8.08
2023-01-03T12:53:23.765Z,8.19
2023-01-03T12:56:09.081Z,7.89
2023-01-03T12:59:01.173Z,7.70
2023-01-03T13:02:04.771Z,7.68
2023-01-03T13:04:34.930Z,7.62
2023-01-03T13:07:18.903Z,7.56
2023-01-03T13:10:00.776Z,7.49
2023-01-03T13:12:35.106Z,7.39
2023-01-03T13:15:36.208Z,7.37
2023-01-03T13:18:21.900Z,7.34
2023-01-03T13:20:50.604Z,7.22
2023-01-03T13:23:32.753Z,7.18
2023-01-03T13:26:21.484Z,7.02
2023-01-03T13:28:48.884Z,6.99
2023-01-03T13:31:19.434Z,6.99
2023-01-03T13:33:52.474Z,6.86
2023-01-03T13:36:19.791Z,6.86
2023-01-03T13:38:47.335Z,6.83
2023-01-03T13:41:38.145Z,6.90
2023-01-03T13:44:17.741Z,6.74
2023-01-03T13:46:45.226Z,6.72
2023-01-03T13:49:27.891Z,6.64
2023-01-03T13:51:59.473Z,6.73
2023-01-03T13:54:58.025Z,6.68
2023-01-03T13:57:31.376Z,6.71
2023-01-03T13:59:59.953Z,6.65
2023-01-03T14:02:53.593Z,6.65
2023-01-03T14:05:45.483Z,6.59
2023-01-03T14:08:41.727Z,6.49
2023-01-03T14:11:15.970Z,6.41
2023-01-03T14:13:49.074Z,6.46
2023-01-03T14:16:31.046Z,6.49
2023-01-03T14:19:02.726Z,6.45
2023-01-03T14:21:48.765Z,6.42
2023-01-03T14:24:20.571Z,6.38
2023-01-03T14:26:48.282Z,6.34
2023-01-03T14:29:20.521Z,6.34
2023-01-03T14:31:51.406Z,6.30
2023-01-03T14:34:35.854Z,6.28
2023-01-03T14:37:24.939Z,6.29
2023-01-03T14:39:56.816Z,6.19
2023-01-03T14:42:24.379Z,6.17
2023-01-03T14:45:03.358Z,6.13
2023-01-03T14:47:41.582Z,6.11
2023-01-03T14:50:30.091Z,6.01
2023-01-03T14:52:59.110Z,5.99
2023-01-03T14:55:29.356Z,5.93
2023-01-03T14:57:57.452Z,5.89
2023-01-03T15:00:33.369Z,5.86
2023-01-03T15:03:02.243Z,5.78
2023-01-03T15:05:35.084Z,5.78
2023-01-03T15:08:31.371Z,5.74
2023-01-03T15:11:08.222Z,5.68
2023-01-03T15:13:41.241Z,5.60
2023-01-03T15:16:31.367Z,5.59
2023-01-03T15:19:21.423Z,5.50
2023-01-03T15:21:49.189Z,5.42
2023-01-03T15:24:22.775Z,5.41
2023-01-03T15:26:53.710Z,5.36
2023-01-03T15:29:25.072Z,5.30
2023-01-03T15:32:01.711Z,5.28
2023-01-03T15:34:41.688Z,5.20
2023-01-03T15:37:22.475Z,5.12
2023-01-03T15:39:54.729Z,5.05
2023-01-03T15:42:45.281Z,4.99
2023-01-03T15:45:35.410Z,4.94
2023-01-03T15:48:04.985Z,4.82
2023-01-03T15:50:51.421Z,4.76
2023-01-03T15:53:24.203Z,4.71
2023-01-03T15:55:54.657Z,4.62
2023-01-03T15:58:23.446Z,4.60
2023-01-03T16:00:50.751Z,4.56
2023-01-03T16:03:20.301Z,4.50
2023-01-03T16:05:47.652Z,4.40
2023-01-03T16:08:31.079Z,4.37
2023-01-03T16:11:00.030Z,4.35
2023-01-03T16:13:29.879Z,4.31
2023-01-03T16:15:59.242Z,4.29
2023-01-03T16:18:34.954Z,4.11
2023-01-03T16:21:02.470Z,4.10
2023-01-03T16:23:31.592Z,4.14
2023-01-03T16:25:58.798Z,4.16
2023-01-03T16:28:26.710Z,4.18
2023-01-03T16:31:16.394Z,4.14
2023-01-03T16:33:44.207Z,4.13
2023-01-03T16:36:37.338Z,4.19
2023-01-03T16:39:06.787Z,4.16
2023-01-03T16:41:34.240Z,4.12
2023-01-03T16:44:04.265Z,4.06
2023-01-03T16:46:31.618Z,4.07
2023-01-03T16:48:59.954Z,4.12
2023-01-03T16:51:32.697Z,4.05
2023-01-03T16:54:00.890Z,4.04
2023-01-03T16:56:28.616Z,3.89
2023-01-03T16:58:56.115Z,3.96
2023-01-03T17:01:23.703Z,4.04
2023-01-03T17:03:51.585Z,4.12
2023-01-03T17:06:37.477Z,4.17
2023-01-03T17:09:21.157Z,4.23
2023-01-03T17:11:48.682Z,4.23
2023-01-03T17:14:18.697Z,4.13
2023-01-03T17:16:46.540Z,4.14
2023-01-03T17:20:01.585Z,4.00
2023-01-03T17:22:07.360Z,3.97
2023-01-03T17:24:34.762Z,4.05
2023-01-03T17:27:04.226Z,3.89
2023-01-03T17:29:31.679Z,3.90
2023-01-03T17:31:59.097Z,3.81
2023-01-03T17:34:30.121Z,3.70
2023-01-03T17:36:58.828Z,3.67
2023-01-03T17:39:27.130Z,3.70
2023-01-03T17:42:12.566Z,3.77
2023-01-03T17:44:40.271Z,3.83
2023-01-03T17:47:35.186Z,3.97
2023-01-03T17:50:02.851Z,4.09
2023-01-03T17:52:34.001Z,4.13
2023-01-03T17:55:04.606Z,4.19
2023-01-03T17:57:32.771Z,4.17
2023-01-03T18:00:00.392Z,4.11
2023-01-03T18:02:28.478Z,4.11
2023-01-03T18:07:45.678Z,4.11
2023-01-03T18:10:18.395Z,3.99
2023-01-03T18:12:45.675Z,3.89
2023-01-03T18:15:21.433Z,3.83
2023-01-03T18:17:49.592Z,3.79
2023-01-03T18:20:18.435Z,3.63
2023-01-03T18:22:46.982Z,3.67
2023-01-03T18:25:22.743Z,3.70
2023-01-03T18:28:01.483Z,3.60
2023-01-03T18:30:29.098Z,3.44
2023-01-03T18:32:56.419Z,3.44
2023-01-03T18:35:29.579Z,3.44
2023-01-03T18:38:00.126Z,3.36
2023-01-03T18:40:27.807Z,3.37
2023-01-03T18:43:09.582Z,3.33
2023-01-03T18:45:37.983Z,3.30
2023-01-03T18:48:05.623Z,3.23
2023-01-03T18:50:32.988Z,3.19
2023-01-03T18:53:04.060Z,3.16
2023-01-03T18:55:33.935Z,3.11
2023-01-03T18:58:08.096Z,3.02
2023-01-03T19:00:35.369Z,2.96
2023-01-03T19:03:13.436Z,2.98
2023-01-03T19:05:40.877Z,2.99
2023-01-03T19:08:09.194Z,3.05
2023-01-03T19:10:36.456Z,3.13
2023-01-03T19:13:03.706Z,3.06
2023-01-03T19:15:31.036Z,3.06
2023-01-03T19:18:01.432Z,3.10
2023-01-03T19:20:28.782Z,3.09
2023-01-03T19:22:56.222Z,3.10
2023-01-03T19:25:25.393Z,3.12
2023-01-03T19:27:54.593Z,3.22
2023-01-03T19:30:38.150Z,3.31
2023-01-03T19:33:08.624Z,3.41
2023-01-03T19:35:35.858Z,3.52
2023-01-03T19:38:03.322Z,3.55
2023-01-03T19:40:32.836Z,3.56
2023-01-03T19:43:00.657Z,3.50
2023-01-03T19:45:36.393Z,3.57
2023-01-03T19:48:12.803Z,3.59
2023-01-03T19:50:40.696Z,3.56
2023-01-03T19:53:07.905Z,3.65
2023-01-03T19:55:42.612Z,3.62
2023-01-03T19:58:17.761Z,3.65
2023-01-03T20:00:47.875Z,3.64
2023-01-03T20:03:38.966Z,3.71
2023-01-03T20:06:08.704Z,3.66
2023-01-03T20:08:35.903Z,3.59
2023-01-03T20:11:03.862Z,3.68
2023-01-03T20:13:32.862Z,3.61
2023-01-03T20:16:02.050Z,3.57
2023-01-03T20:18:30.117Z,3.43
2023-01-03T20:21:22.881Z,3.17
2023-01-03T20:23:55.506Z,3.19
2023-01-03T20:26:25.817Z,3.10
2023-01-03T20:28:54.786Z,2.99
2023-01-03T20:31:22.542Z,3.06
2023-01-03T20:33:50.232Z,2.94
2023-01-03T20:36:25.573Z,3.14
2023-01-03T20:38:54.257Z,3.12
2023-01-03T20:41:23.587Z,3.24
2023-01-03T20:43:52.356Z,3.29
2023-01-03T20:46:21.377Z,3.42
2023-01-03T20:48:56.118Z,3.37
2023-01-03T20:51:26.871Z,3.52
2023-01-03T20:53:55.454Z,3.50
2023-01-03T20:56:23.327Z,3.52
2023-01-03T20:58:50.762Z,3.52
2023-01-03T21:01:18.228Z,3.48
2023-01-03T21:03:45.746Z,3.52
2023-01-03T21:06:20.732Z,3.59
2023-01-03T21:08:54.820Z,3.61
2023-01-03T21:11:28.971Z,3.68
2023-01-03T21:13:57.697Z,3.70
2023-01-03T21:16:36.724Z,3.74
2023-01-03T21:19:09.741Z,3.55
2023-01-03T21:21:37.060Z,3.64
2023-01-03T21:24:05.037Z,3.72
2023-01-03T21:26:32.402Z,3.65
2023-01-03T21:29:03.268Z,3.69
2023-01-03T21:31:30.889Z,3.68
2023-01-03T21:33:58.252Z,3.81
2023-01-03T21:36:33.578Z,3.74
2023-01-03T21:39:03.057Z,3.67
2023-01-03T21:41:32.727Z,3.63
2023-01-03T21:44:07.412Z,3.75
2023-01-03T21:46:34.840Z,3.76
2023-01-03T21:49:02.446Z,3.66
2023-01-03T21:51:38.325Z,3.81
2023-01-03T21:54:07.281Z,3.76
2023-01-03T21:56:37.626Z,3.72
2023-01-03T21:59:04.992Z,3.73
2023-01-03T22:01:52.273Z,3.72
2023-01-03T22:04:19.519Z,3.74
2023-01-03T22:06:46.901Z,3.78
2023-01-03T22:09:34.033Z,3.69
2023-01-03T22:12:01.192Z,3.54
2023-01-03T22:14:28.363Z,3.51
2023-01-03T22:16:55.576Z,3.47
2023-01-03T22:19:22.795Z,3.40
2023-01-03T22:21:50.141Z,3.48
2023-01-03T22:24:17.304Z,3.50
2023-01-03T22:26:44.489Z,3.55
2023-01-03T22:29:12.392Z,3.58
2023-01-03T22:31:39.628Z,3.60
2023-01-03T22:34:06.785Z,3.49
2023-01-03T22:36:33.963Z,3.43
2023-01-03T22:39:01.161Z,3.30
2023-01-03T22:41:28.560Z,3.20
2023-01-03T22:43:55.819Z,3.18
2023-01-03T22:46:24.154Z,3.22
2023-01-03T22:48:51.612Z,3.15
2023-01-03T22:51:19.035Z,3.06
2023-01-03T22:53:49.010Z,3.12
2023-01-03T22:56:17.459Z,3.08
2023-01-03T22:58:45.721Z,3.07
2023-01-03T23:01:19.313Z,2.95
2023-01-03T23:03:47.959Z,2.96
2023-01-03T23:06:17.520Z,2.94
2023-01-03T23:08:45.437Z,2.93
2023-01-03T23:11:34.660Z,2.87
2023-01-03T23:14:04.042Z,2.76
2023-01-03T23:16:32.246Z,2.84
2023-01-03T23:19:03.759Z,2.83
2023-01-03T23:21:30.970Z,2.71
2023-01-03T23:23:58.475Z,2.72
2023-01-03T23:26:26.124Z,2.67
2023-01-03T23:28:57.433Z,2.73
2023-01-03T23:31:27.235Z,2.70
2023-01-03T23:33:55.493Z,2.80
2023-01-03T23:36:22.690Z,2.88
2023-01-03T23:38:50.106Z,2.94
2023-01-03T23:41:17.871Z,2.96
2023-01-03T23:43:45.212Z,2.97
2023-01-03T23:46:20.062Z,3.04
2023-01-03T23:48:47.733Z,3.03
2023-01-03T23:51:15.794Z,3.10
2023-01-03T23:53:43.789Z,3.08
2023-01-03T23:56:14.581Z,3.15
2023-01-03T23:58:42.025Z,3.11
